Darstellungsparameter: Aktuell verwendete Einstellungen:
Skalierung der Graphiken ... ?
xyx+y,   Skalierungsfaktor:      Skalierung: Modus: x, Faktor: 1
Darstellungszeitraum ... ?
Vom - - bis: - -   Zeitraum: 01.02.2022 - 01.02.2022
Min/Max/Avg-Anzeige ... ?
Zeige MMA aktuell
Zeige MMA Monat
Zeige MMA alles
Zeige --A aktuell
Zeige --A Monat
Zeige --A alles
Keine MMA-Anzeige
MMA:
Average (ber die Originaldaten)
MMA-Basis: 01.02.2022 - 01.02.2022
Quicknavigation für Darstellung... ?
Tage:      1T, 2T, 3T, 5T -1T -2T -3T -5T +1T +2T +3T +5T
Wochen: 1W, 2W, 3W -1W -2W -3W +1W +2W +3W
Monate: 1M, 3M, 6M -1M -3M -6M +1M +3M +6M
Jahre:    1J, 3J, 5J, 10J -1J -3J -5J -10J +1J +3J +5J +10J
Nutze für die Darstellung ... ?
Originaldaten oder Mittelwerte auf ...
Stundenbasis Tagesbasis Wochenbasis
Monatsbasis Jahresbasis      Datenbasis: Original-Daten
Darstellen als:
Statistik (Auto) Statistik J:M      Darstellung:
Zur Graphik,    zurück zur Übersicht aller Sensoren.
 
Tabellarische Datenbersicht: ?
 
Sensor: Nr:Datum:Temp:Abs-Feuchte:Windchill:Wind:
Aussen-T/F 1 01-02-2022 00:00:00 4.5 C 5.98 g/m*3 1.48 C 12.9 km/h
2 01-02-2022 00:05:00 4.5 C 5.98 g/m*3 0.96 C 16.1 km/h
3 01-02-2022 00:10:00 4.5 C 5.98 g/m*3 1.21 C 14.5 km/h
4 01-02-2022 00:15:00 4.5 C 5.92 g/m*3 0.96 C 16.1 km/h
5 01-02-2022 00:20:00 4.5 C 5.92 g/m*3 1.79 C 11.3 km/h
6 01-02-2022 00:25:00 4.5 C 5.92 g/m*3 1.79 C 11.3 km/h
7 01-02-2022 00:30:00 4.6 C 5.89 g/m*3 1.34 C 14.5 km/h
8 01-02-2022 00:35:00 4.6 C 5.96 g/m*3 3.13 C 6.4 km/h
9 01-02-2022 00:40:00 4.6 C 5.89 g/m*3 1.91 C 11.3 km/h
10 01-02-2022 00:45:00 4.6 C 5.89 g/m*3 2.25 C 9.7 km/h
11 01-02-2022 00:50:00 4.6 C 5.89 g/m*3 0.45 C 20.9 km/h
12 01-02-2022 00:55:00 4.6 C 5.82 g/m*3 2.64 C 8.1 km/h
13 01-02-2022 01:00:00 4.6 C 5.82 g/m*3 2.25 C 9.7 km/h
14 01-02-2022 01:05:00 4.6 C 5.76 g/m*3 1.09 C 16.1 km/h
15 01-02-2022 01:10:00 4.6 C 5.69 g/m*3 0.86 C 17.7 km/h
16 01-02-2022 01:15:00 4.6 C 5.69 g/m*3 2.25 C 9.7 km/h
17 01-02-2022 01:20:00 4.6 C 5.69 g/m*3 1.91 C 11.3 km/h
18 01-02-2022 01:25:00 4.6 C 5.69 g/m*3 1.61 C 12.9 km/h
19 01-02-2022 01:30:00 4.5 C 5.52 g/m*3 0.96 C 16.1 km/h
20 01-02-2022 01:35:00 4.6 C 5.56 g/m*3 0.1 C 24.1 km/h
21 01-02-2022 01:40:00 4.5 C 5.52 g/m*3 1.79 C 11.3 km/h
22 01-02-2022 01:45:00 4.5 C 5.46 g/m*3 2.13 C 9.7 km/h
23 01-02-2022 01:50:00 4.4 C 5.42 g/m*3 0.84 C 16.1 km/h
24 01-02-2022 01:55:00 4.4 C 5.42 g/m*3 1.09 C 14.5 km/h
25 01-02-2022 02:00:00 4.3 C 5.38 g/m*3 1.24 C 12.9 km/h
Sensor: Nr:Datum:Temp:Abs-Feuchte:Windchill:Wind:
Aussen-T/F 26 01-02-2022 02:05:00 4.3 C 5.38 g/m*3 1.24 C 12.9 km/h
27 01-02-2022 02:10:00 4.3 C 5.38 g/m*3 2.29 C 8.1 km/h
28 01-02-2022 02:15:00 4.2 C 5.41 g/m*3 0.36 C 17.7 km/h
29 01-02-2022 02:20:00 4.1 C 5.38 g/m*3 1.65 C 9.7 km/h
30 01-02-2022 02:25:00 4 C 5.34 g/m*3 0.11 C 17.7 km/h
31 01-02-2022 02:30:00 3.9 C 5.31 g/m*3 0.75 C 12.9 km/h
32 01-02-2022 02:35:00 3.8 C 5.27 g/m*3 0.94 C 11.3 km/h
33 01-02-2022 02:40:00 3.8 C 5.27 g/m*3 0.94 C 11.3 km/h
34 01-02-2022 02:45:00 3.7 C 5.23 g/m*3 1.58 C 8.1 km/h
35 01-02-2022 02:50:00 3.7 C 5.23 g/m*3 0.82 C 11.3 km/h
36 01-02-2022 02:55:00 3.7 C 5.23 g/m*3 0.51 C 12.9 km/h
37 01-02-2022 03:00:00 3.7 C 5.3 g/m*3 2.09 C 6.4 km/h
38 01-02-2022 03:05:00 3.7 C 5.23 g/m*3 0.23 C 14.5 km/h
39 01-02-2022 03:10:00 3.8 C 5.27 g/m*3 1.29 C 9.7 km/h
40 01-02-2022 03:15:00 3.8 C 5.27 g/m*3 1.29 C 9.7 km/h
41 01-02-2022 03:20:00 3.8 C 5.27 g/m*3 1.29 C 9.7 km/h
42 01-02-2022 03:25:00 3.8 C 5.33 g/m*3 -0.36 C 19.3 km/h
43 01-02-2022 03:30:00 3.8 C 5.33 g/m*3 2.21 C 6.4 km/h
44 01-02-2022 03:35:00 3.8 C 5.33 g/m*3 0.94 C 11.3 km/h
45 01-02-2022 03:40:00 3.8 C 5.33 g/m*3 0.94 C 11.3 km/h
46 01-02-2022 03:45:00 3.8 C 5.4 g/m*3 2.21 C 6.4 km/h
47 01-02-2022 03:50:00 3.7 C 5.36 g/m*3 1.58 C 8.1 km/h
48 01-02-2022 03:55:00 3.8 C 5.4 g/m*3 1.7 C 8.1 km/h
49 01-02-2022 04:00:00 3.8 C 5.4 g/m*3 0.94 C 11.3 km/h
50 01-02-2022 04:05:00 3.8 C 5.4 g/m*3 0.94 C 11.3 km/h
Sensor: Nr:Datum:Temp:Abs-Feuchte:Windchill:Wind:
Aussen-T/F 51 01-02-2022 04:10:00 3.8 C 5.4 g/m*3 1.29 C 9.7 km/h
52 01-02-2022 04:15:00 3.9 C 5.37 g/m*3 1.82 C 8.1 km/h
53 01-02-2022 04:20:00 3.9 C 5.37 g/m*3 2.32 C 6.4 km/h
54 01-02-2022 04:25:00 3.9 C 5.37 g/m*3 3.9 C 3.2 km/h
55 01-02-2022 04:30:00 3.9 C 5.31 g/m*3 1.82 C 8.1 km/h
56 01-02-2022 04:35:00 4 C 5.34 g/m*3 4 C 4.8 km/h
57 01-02-2022 04:40:00 4 C 5.34 g/m*3 1.93 C 8.1 km/h
58 01-02-2022 04:45:00 4 C 5.4 g/m*3 2.44 C 6.4 km/h
59 01-02-2022 04:50:00 4 C 5.34 g/m*3 1.18 C 11.3 km/h
60 01-02-2022 04:55:00 3.9 C 5.31 g/m*3 2.32 C 6.4 km/h
61 01-02-2022 05:00:00 3.9 C 5.31 g/m*3 2.32 C 6.4 km/h
62 01-02-2022 05:05:00 3.9 C 5.37 g/m*3 1.82 C 8.1 km/h
63 01-02-2022 05:10:00 3.9 C 5.37 g/m*3 2.32 C 6.4 km/h
64 01-02-2022 05:15:00 3.9 C 5.31 g/m*3 2.32 C 6.4 km/h
65 01-02-2022 05:20:00 3.9 C 5.37 g/m*3 1.06 C 11.3 km/h
66 01-02-2022 05:25:00 3.8 C 5.27 g/m*3 1.7 C 8.1 km/h
67 01-02-2022 05:30:00 3.8 C 5.27 g/m*3 1.7 C 8.1 km/h
68 01-02-2022 05:35:00 3.8 C 5.27 g/m*3 1.29 C 9.7 km/h
69 01-02-2022 05:40:00 3.8 C 5.27 g/m*3 0.94 C 11.3 km/h
70 01-02-2022 05:45:00 3.9 C 5.31 g/m*3 1.82 C 8.1 km/h
71 01-02-2022 05:50:00 3.8 C 5.27 g/m*3 1.7 C 8.1 km/h
72 01-02-2022 05:55:00 3.8 C 5.27 g/m*3 0.94 C 11.3 km/h
73 01-02-2022 06:00:00 3.8 C 5.27 g/m*3 1.7 C 8.1 km/h
74 01-02-2022 06:05:00 3.7 C 5.23 g/m*3 1.18 C 9.7 km/h
75 01-02-2022 06:10:00 3.7 C 5.23 g/m*3 0.82 C 11.3 km/h
Sensor: Nr:Datum:Temp:Abs-Feuchte:Windchill:Wind:
Aussen-T/F 76 01-02-2022 06:15:00 3.7 C 5.23 g/m*3 0.23 C 14.5 km/h
77 01-02-2022 06:20:00 3.6 C 5.2 g/m*3 1.46 C 8.1 km/h
78 01-02-2022 06:25:00 3.6 C 5.2 g/m*3 1.46 C 8.1 km/h
79 01-02-2022 06:30:00 3.6 C 5.26 g/m*3 0.7 C 11.3 km/h
80 01-02-2022 06:35:00 3.6 C 5.26 g/m*3 1.98 C 6.4 km/h
81 01-02-2022 06:40:00 3.6 C 5.26 g/m*3 1.06 C 9.7 km/h
82 01-02-2022 06:45:00 3.7 C 5.3 g/m*3 1.58 C 8.1 km/h
83 01-02-2022 06:50:00 3.6 C 5.26 g/m*3 0.7 C 11.3 km/h
84 01-02-2022 06:55:00 3.6 C 5.26 g/m*3 1.98 C 6.4 km/h
85 01-02-2022 07:00:00 3.6 C 5.26 g/m*3 1.06 C 9.7 km/h
86 01-02-2022 07:05:00 3.6 C 5.26 g/m*3 0.7 C 11.3 km/h
87 01-02-2022 07:10:00 3.6 C 5.26 g/m*3 -0.15 C 16.1 km/h
88 01-02-2022 07:15:00 3.7 C 5.36 g/m*3 0.82 C 11.3 km/h
89 01-02-2022 07:20:00 3.6 C 5.32 g/m*3 -0.15 C 16.1 km/h
90 01-02-2022 07:25:00 3.7 C 5.42 g/m*3 -0.26 C 17.7 km/h
91 01-02-2022 07:30:00 3.6 C 5.39 g/m*3 0.7 C 11.3 km/h
92 01-02-2022 07:35:00 3.6 C 5.45 g/m*3 0.39 C 12.9 km/h
93 01-02-2022 07:40:00 3.4 C 5.37 g/m*3 0.14 C 12.9 km/h
94 01-02-2022 07:45:00 3.4 C 5.37 g/m*3 0.46 C 11.3 km/h
95 01-02-2022 07:50:00 3.3 C 5.34 g/m*3 0.34 C 11.3 km/h
96 01-02-2022 07:55:00 3.3 C 5.34 g/m*3 0.34 C 11.3 km/h
97 01-02-2022 08:00:00 3.3 C 5.34 g/m*3 -0.26 C 14.5 km/h
98 01-02-2022 08:05:00 3.2 C 5.3 g/m*3 0.22 C 11.3 km/h
99 01-02-2022 08:10:00 3.2 C 5.36 g/m*3 0.22 C 11.3 km/h
100 01-02-2022 08:15:00 3.1 C 5.33 g/m*3 1.4 C 6.4 km/h
Sensor: Nr:Datum:Temp:Abs-Feuchte:Windchill:Wind:
Aussen-T/F 101 01-02-2022 08:20:00 3.1 C 5.33 g/m*3 -0.77 C 16.1 km/h
102 01-02-2022 08:25:00 3.1 C 5.33 g/m*3 -0.22 C 12.9 km/h
103 01-02-2022 08:30:00 3.1 C 5.33 g/m*3 0.1 C 11.3 km/h
104 01-02-2022 08:35:00 3.2 C 5.42 g/m*3 0.99 C 8.1 km/h
105 01-02-2022 08:40:00 3.2 C 5.42 g/m*3 0.22 C 11.3 km/h
106 01-02-2022 08:45:00 3.3 C 5.4 g/m*3 -0.26 C 14.5 km/h
107 01-02-2022 08:50:00 3.4 C 5.44 g/m*3 -0.86 C 19.3 km/h
108 01-02-2022 08:55:00 3.6 C 5.45 g/m*3 -0.15 C 16.1 km/h
109 01-02-2022 09:00:00 3.6 C 5.45 g/m*3 0.39 C 12.9 km/h
110 01-02-2022 09:05:00 3.7 C 5.48 g/m*3 0.23 C 14.5 km/h
111 01-02-2022 09:10:00 3.7 C 5.42 g/m*3 -0.48 C 19.3 km/h
112 01-02-2022 09:15:00 3.8 C 5.46 g/m*3 -0.56 C 20.9 km/h
113 01-02-2022 09:20:00 3.8 C 5.4 g/m*3 -0.14 C 17.7 km/h
114 01-02-2022 09:25:00 3.9 C 5.43 g/m*3 -0.23 C 19.3 km/h
115 01-02-2022 09:30:00 4 C 5.4 g/m*3 -0.11 C 19.3 km/h
116 01-02-2022 09:35:00 4.1 C 5.44 g/m*3 0.24 C 17.7 km/h
117 01-02-2022 09:40:00 4.1 C 5.44 g/m*3 -0.37 C 22.5 km/h
118 01-02-2022 09:45:00 4.1 C 5.44 g/m*3 0.02 C 19.3 km/h
119 01-02-2022 09:50:00 4.1 C 5.44 g/m*3 0.02 C 19.3 km/h
120 01-02-2022 09:55:00 4.1 C 5.44 g/m*3 0.24 C 17.7 km/h
121 01-02-2022 10:00:00 4.1 C 5.44 g/m*3 -0.55 C 24.1 km/h
122 01-02-2022 10:05:00 4.1 C 5.44 g/m*3 -0.55 C 24.1 km/h
123 01-02-2022 10:10:00 4.2 C 5.48 g/m*3 0.15 C 19.3 km/h
124 01-02-2022 10:15:00 4.2 C 5.48 g/m*3 -0.24 C 22.5 km/h
125 01-02-2022 10:20:00 4.2 C 5.48 g/m*3 0.59 C 16.1 km/h
Sensor: Nr:Datum:Temp:Abs-Feuchte:Windchill:Wind:
Aussen-T/F 126 01-02-2022 10:25:00 4.2 C 5.48 g/m*3 -0.24 C 22.5 km/h
127 01-02-2022 10:30:00 4.2 C 5.48 g/m*3 -0.42 C 24.1 km/h
128 01-02-2022 10:35:00 4.2 C 5.48 g/m*3 -0.24 C 22.5 km/h
129 01-02-2022 10:40:00 4.2 C 5.41 g/m*3 -0.42 C 24.1 km/h
130 01-02-2022 10:45:00 4.3 C 5.51 g/m*3 0.27 C 19.3 km/h
131 01-02-2022 10:50:00 4.3 C 5.51 g/m*3 0.07 C 20.9 km/h
132 01-02-2022 10:55:00 4.4 C 5.48 g/m*3 0.61 C 17.7 km/h
133 01-02-2022 11:00:00 4.4 C 5.48 g/m*3 -0.78 C 30.6 km/h
134 01-02-2022 11:05:00 4.4 C 5.48 g/m*3 0.2 C 20.9 km/h
135 01-02-2022 11:10:00 4.5 C 5.52 g/m*3 0.33 C 20.9 km/h
136 01-02-2022 11:15:00 4.6 C 5.56 g/m*3 0.45 C 20.9 km/h
137 01-02-2022 11:20:00 4.7 C 5.6 g/m*3 0.78 C 19.3 km/h
138 01-02-2022 11:25:00 4.8 C 5.7 g/m*3 0.52 C 22.5 km/h
139 01-02-2022 11:30:00 4.9 C 5.67 g/m*3 0.48 C 24.1 km/h
140 01-02-2022 11:35:00 4.9 C 5.67 g/m*3 0.65 C 22.5 km/h
141 01-02-2022 11:40:00 4.9 C 5.67 g/m*3 0.15 C 27.4 km/h
142 01-02-2022 11:45:00 4.9 C 5.67 g/m*3 1.03 C 19.3 km/h
143 01-02-2022 11:50:00 5.1 C 5.81 g/m*3 1.71 C 16.1 km/h
144 01-02-2022 11:55:00 5.1 C 5.75 g/m*3 1.28 C 19.3 km/h
145 01-02-2022 12:00:00 5.1 C 5.75 g/m*3 1.28 C 19.3 km/h
146 01-02-2022 12:05:00 5.1 C 5.75 g/m*3 1.49 C 17.7 km/h
147 01-02-2022 12:10:00 5.2 C 5.85 g/m*3 1.03 C 22.5 km/h
148 01-02-2022 12:15:00 5.1 C 5.75 g/m*3 1.28 C 19.3 km/h
149 01-02-2022 12:20:00 5.1 C 5.81 g/m*3 0.74 C 24.1 km/h
150 01-02-2022 12:25:00 5 C 5.78 g/m*3 0 C 30.6 km/h
Sensor: Nr:Datum:Temp:Abs-Feuchte:Windchill:Wind:
Aussen-T/F 151 01-02-2022 12:30:00 5 C 5.78 g/m*3 0.14 C 29 km/h
152 01-02-2022 12:35:00 5 C 5.78 g/m*3 -0.13 C 32.2 km/h
153 01-02-2022 12:40:00 4.9 C 5.74 g/m*3 0.15 C 27.4 km/h
154 01-02-2022 12:45:00 4.9 C 5.81 g/m*3 0.15 C 27.4 km/h
155 01-02-2022 12:50:00 4.9 C 5.81 g/m*3 0.83 C 20.9 km/h
156 01-02-2022 12:55:00 4.9 C 5.81 g/m*3 0.32 C 25.7 km/h
157 01-02-2022 13:00:00 4.9 C 5.81 g/m*3 0.32 C 25.7 km/h
158 01-02-2022 13:05:00 4.8 C 5.83 g/m*3 0.35 C 24.1 km/h
159 01-02-2022 13:10:00 4.8 C 5.83 g/m*3 0.9 C 19.3 km/h
160 01-02-2022 13:15:00 4.8 C 5.83 g/m*3 1.11 C 17.7 km/h
161 01-02-2022 13:20:00 4.7 C 5.8 g/m*3 0.22 C 24.1 km/h
162 01-02-2022 13:25:00 4.7 C 5.8 g/m*3 -0.25 C 29 km/h
163 01-02-2022 13:30:00 4.7 C 5.8 g/m*3 0.06 C 25.7 km/h
164 01-02-2022 13:35:00 4.8 C 5.9 g/m*3 0.71 C 20.9 km/h
165 01-02-2022 13:40:00 4.8 C 5.9 g/m*3 0.71 C 20.9 km/h
166 01-02-2022 13:45:00 4.9 C 5.94 g/m*3 -0.13 C 30.6 km/h
167 01-02-2022 13:50:00 4.9 C 5.94 g/m*3 0.15 C 27.4 km/h
168 01-02-2022 13:55:00 4.9 C 5.94 g/m*3 0.32 C 25.7 km/h
169 01-02-2022 14:00:00 4.9 C 5.94 g/m*3 0.83 C 20.9 km/h
170 01-02-2022 14:05:00 4.9 C 5.94 g/m*3 0.48 C 24.1 km/h
171 01-02-2022 14:10:00 4.9 C 5.94 g/m*3 1.03 C 19.3 km/h
172 01-02-2022 14:15:00 4.9 C 5.94 g/m*3 0.65 C 22.5 km/h
173 01-02-2022 14:20:00 4.9 C 5.94 g/m*3 0.32 C 25.7 km/h
174 01-02-2022 14:25:00 4.9 C 5.94 g/m*3 0.32 C 25.7 km/h
175 01-02-2022 14:30:00 4.9 C 5.94 g/m*3 0.48 C 24.1 km/h
Sensor: Nr:Datum:Temp:Abs-Feuchte:Windchill:Wind:
Aussen-T/F 176 01-02-2022 14:35:00 5 C 6.05 g/m*3 0.96 C 20.9 km/h
177 01-02-2022 14:40:00 5.1 C 6.09 g/m*3 1.71 C 16.1 km/h
178 01-02-2022 14:45:00 5.1 C 6.09 g/m*3 0.91 C 22.5 km/h
179 01-02-2022 14:50:00 5.2 C 6.13 g/m*3 0.4 C 29 km/h
180 01-02-2022 14:55:00 5.3 C 6.1 g/m*3 0.99 C 24.1 km/h
181 01-02-2022 15:00:00 5.3 C 6.1 g/m*3 1.16 C 22.5 km/h
182 01-02-2022 15:05:00 5.4 C 6.14 g/m*3 0.96 C 25.7 km/h
183 01-02-2022 15:10:00 5.5 C 6.18 g/m*3 0.4 C 33.8 km/h
184 01-02-2022 15:15:00 5.6 C 6.22 g/m*3 1.54 C 22.5 km/h
185 01-02-2022 15:20:00 5.7 C 6.26 g/m*3 1.19 C 27.4 km/h
186 01-02-2022 15:25:00 5.7 C 6.26 g/m*3 2.03 C 19.3 km/h
187 01-02-2022 15:30:00 5.7 C 6.26 g/m*3 1.35 C 25.7 km/h
188 01-02-2022 15:35:00 5.8 C 6.3 g/m*3 1.48 C 25.7 km/h
189 01-02-2022 15:40:00 5.8 C 6.3 g/m*3 1.48 C 25.7 km/h
190 01-02-2022 15:45:00 5.8 C 6.3 g/m*3 1.32 C 27.4 km/h
191 01-02-2022 15:50:00 5.8 C 6.3 g/m*3 1.05 C 30.6 km/h
192 01-02-2022 15:55:00 5.8 C 6.3 g/m*3 1.8 C 22.5 km/h
193 01-02-2022 16:00:00 5.9 C 6.35 g/m*3 1.61 C 25.7 km/h
194 01-02-2022 16:05:00 5.9 C 6.35 g/m*3 2.29 C 19.3 km/h
195 01-02-2022 16:10:00 6 C 6.39 g/m*3 2.23 C 20.9 km/h
196 01-02-2022 16:15:00 6 C 6.39 g/m*3 1.73 C 25.7 km/h
197 01-02-2022 16:20:00 6.1 C 6.5 g/m*3 1.86 C 25.7 km/h
198 01-02-2022 16:25:00 6.2 C 6.55 g/m*3 1.84 C 27.4 km/h
199 01-02-2022 16:30:00 6.2 C 6.55 g/m*3 2.15 C 24.1 km/h
200 01-02-2022 16:35:00 6.2 C 6.55 g/m*3 2.15 C 24.1 km/h
Sensor: Nr:Datum:Temp:Abs-Feuchte:Windchill:Wind:
Aussen-T/F 201 01-02-2022 16:40:00 6.3 C 6.66 g/m*3 1.97 C 27.4 km/h
202 01-02-2022 16:45:00 6.3 C 6.66 g/m*3 1.97 C 27.4 km/h
203 01-02-2022 16:50:00 6.3 C 6.66 g/m*3 2.12 C 25.7 km/h
204 01-02-2022 16:55:00 6.3 C 6.74 g/m*3 2.43 C 22.5 km/h
205 01-02-2022 17:00:00 6.2 C 6.69 g/m*3 2.66 C 19.3 km/h
206 01-02-2022 17:05:00 6.2 C 6.69 g/m*3 2.48 C 20.9 km/h
207 01-02-2022 17:10:00 6.2 C 6.69 g/m*3 2.66 C 19.3 km/h
208 01-02-2022 17:15:00 6.2 C 6.77 g/m*3 2.15 C 24.1 km/h
209 01-02-2022 17:20:00 6.3 C 6.81 g/m*3 2.61 C 20.9 km/h
210 01-02-2022 17:25:00 6.3 C 6.81 g/m*3 2.98 C 17.7 km/h
211 01-02-2022 17:30:00 6.4 C 6.85 g/m*3 2.56 C 22.5 km/h
212 01-02-2022 17:35:00 6.5 C 6.9 g/m*3 3.04 C 19.3 km/h
213 01-02-2022 17:40:00 6.6 C 6.87 g/m*3 3.57 C 16.1 km/h
214 01-02-2022 17:45:00 6.7 C 6.91 g/m*3 3.48 C 17.7 km/h
215 01-02-2022 17:50:00 6.7 C 6.91 g/m*3 3.69 C 16.1 km/h
216 01-02-2022 17:55:00 6.7 C 6.91 g/m*3 3.11 C 20.9 km/h
217 01-02-2022 18:00:00 6.8 C 6.96 g/m*3 3.61 C 17.7 km/h
218 01-02-2022 18:05:00 6.8 C 6.88 g/m*3 3.82 C 16.1 km/h
219 01-02-2022 18:10:00 6.9 C 6.93 g/m*3 3.94 C 16.1 km/h
220 01-02-2022 18:15:00 6.9 C 6.93 g/m*3 4.16 C 14.5 km/h
221 01-02-2022 18:20:00 7 C 6.97 g/m*3 4.06 C 16.1 km/h
222 01-02-2022 18:25:00 7 C 6.97 g/m*3 3.67 C 19.3 km/h
223 01-02-2022 18:30:00 7 C 6.97 g/m*3 4.8 C 11.3 km/h
224 01-02-2022 18:35:00 7 C 6.97 g/m*3 4.53 C 12.9 km/h
225 01-02-2022 18:40:00 7 C 7.05 g/m*3 4.06 C 16.1 km/h
Sensor: Nr:Datum:Temp:Abs-Feuchte:Windchill:Wind:
Aussen-T/F 226 01-02-2022 18:45:00 7.1 C 7.1 g/m*3 4.41 C 14.5 km/h
227 01-02-2022 18:50:00 7.2 C 7.14 g/m*3 4.11 C 17.7 km/h
228 01-02-2022 18:55:00 7.2 C 7.14 g/m*3 4.77 C 12.9 km/h
229 01-02-2022 19:00:00 7.2 C 7.14 g/m*3 5.35 C 9.7 km/h
230 01-02-2022 19:05:00 7.2 C 7.14 g/m*3 5.04 C 11.3 km/h
231 01-02-2022 19:10:00 7.2 C 7.14 g/m*3 4.11 C 17.7 km/h
232 01-02-2022 19:15:00 7.3 C 7.19 g/m*3 5.16 C 11.3 km/h
233 01-02-2022 19:20:00 7.3 C 7.19 g/m*3 5.81 C 8.1 km/h
234 01-02-2022 19:25:00 7.3 C 7.11 g/m*3 5.47 C 9.7 km/h
235 01-02-2022 19:30:00 7.3 C 7.19 g/m*3 5.16 C 11.3 km/h
236 01-02-2022 19:35:00 7.5 C 7.2 g/m*3 5.7 C 9.7 km/h
237 01-02-2022 19:40:00 7.7 C 7.3 g/m*3 5.94 C 9.7 km/h
238 01-02-2022 19:45:00 7.7 C 7.22 g/m*3 6.28 C 8.1 km/h
239 01-02-2022 19:50:00 7.8 C 7.26 g/m*3 5.51 C 12.9 km/h
240 01-02-2022 19:55:00 8 C 7.36 g/m*3 5.75 C 12.9 km/h
241 01-02-2022 20:00:00 8.3 C 7.5 g/m*3 6.12 C 12.9 km/h
242 01-02-2022 20:05:00 8.7 C 7.61 g/m*3 6.38 C 14.5 km/h
243 01-02-2022 20:10:00 8.9 C 7.71 g/m*3 6.42 C 16.1 km/h
244 01-02-2022 20:15:00 9 C 7.67 g/m*3 7.49 C 9.7 km/h
245 01-02-2022 20:20:00 9 C 7.67 g/m*3 6.75 C 14.5 km/h
246 01-02-2022 20:25:00 9.2 C 7.59 g/m*3 6.61 C 17.7 km/h
247 01-02-2022 20:30:00 9.3 C 7.55 g/m*3 6.56 C 19.3 km/h
248 01-02-2022 20:35:00 9.3 C 7.55 g/m*3 7.33 C 12.9 km/h
249 01-02-2022 20:40:00 9.3 C 7.64 g/m*3 7.85 C 9.7 km/h
250 01-02-2022 20:45:00 9.3 C 7.64 g/m*3 6.92 C 16.1 km/h
Sensor: Nr:Datum:Temp:Abs-Feuchte:Windchill:Wind:
Aussen-T/F 251 01-02-2022 20:50:00 9.4 C 7.6 g/m*3 6.25 C 24.1 km/h
252 01-02-2022 20:55:00 9.5 C 7.65 g/m*3 7.16 C 16.1 km/h
253 01-02-2022 21:00:00 9.6 C 7.6 g/m*3 7.29 C 16.1 km/h
254 01-02-2022 21:05:00 9.7 C 7.65 g/m*3 7.07 C 19.3 km/h
255 01-02-2022 21:10:00 9.7 C 7.65 g/m*3 7.82 C 12.9 km/h
256 01-02-2022 21:15:00 9.7 C 7.56 g/m*3 8.06 C 11.3 km/h
257 01-02-2022 21:20:00 9.7 C 7.56 g/m*3 6.37 C 27.4 km/h
258 01-02-2022 21:25:00 9.5 C 7.55 g/m*3 6.11 C 27.4 km/h
259 01-02-2022 21:30:00 9.1 C 7.45 g/m*3 5.47 C 29 km/h
260 01-02-2022 21:35:00 8.9 C 7.45 g/m*3 6.62 C 14.5 km/h
261 01-02-2022 21:40:00 8.8 C 7.49 g/m*3 6.5 C 14.5 km/h
262 01-02-2022 21:45:00 8.7 C 7.44 g/m*3 7.13 C 9.7 km/h
263 01-02-2022 21:50:00 8.6 C 7.48 g/m*3 7.01 C 9.7 km/h
264 01-02-2022 21:55:00 8.6 C 7.56 g/m*3 7.01 C 9.7 km/h
265 01-02-2022 22:00:00 8.6 C 7.56 g/m*3 6.48 C 12.9 km/h
266 01-02-2022 22:05:00 8.5 C 7.51 g/m*3 4.69 C 29 km/h
267 01-02-2022 22:10:00 8.3 C 7.5 g/m*3 5.48 C 17.7 km/h
268 01-02-2022 22:15:00 8.1 C 7.41 g/m*3 5.43 C 16.1 km/h
269 01-02-2022 22:20:00 8.1 C 7.49 g/m*3 5.43 C 16.1 km/h
270 01-02-2022 22:25:00 8.1 C 7.49 g/m*3 6.13 C 11.3 km/h
271 01-02-2022 22:30:00 8 C 7.52 g/m*3 5.75 C 12.9 km/h
272 01-02-2022 22:35:00 8 C 7.52 g/m*3 6.3 C 9.7 km/h
273 01-02-2022 22:40:00 8.1 C 7.49 g/m*3 5.43 C 16.1 km/h
274 01-02-2022 22:45:00 8.1 C 7.49 g/m*3 6.13 C 11.3 km/h
275 01-02-2022 22:50:00 8.1 C 7.49 g/m*3 8.1 C 4.8 km/h
Sensor: Nr:Datum:Temp:Abs-Feuchte:Windchill:Wind:
Aussen-T/F 276 01-02-2022 22:55:00 8.1 C 7.49 g/m*3 8.1 C 4.8 km/h
277 01-02-2022 23:00:00 8.1 C 7.49 g/m*3 7.17 C 6.4 km/h
278 01-02-2022 23:05:00 8.1 C 7.49 g/m*3 5.87 C 12.9 km/h
279 01-02-2022 23:10:00 8.1 C 7.49 g/m*3 5.64 C 14.5 km/h
280 01-02-2022 23:15:00 8.2 C 7.54 g/m*3 5.55 C 16.1 km/h
281 01-02-2022 23:20:00 8.2 C 7.54 g/m*3 6.25 C 11.3 km/h
282 01-02-2022 23:25:00 8.1 C 7.41 g/m*3 4.89 C 20.9 km/h
283 01-02-2022 23:30:00 8.1 C 7.41 g/m*3 6.75 C 8.1 km/h
284 01-02-2022 23:35:00 8.1 C 7.41 g/m*3 6.42 C 9.7 km/h
285 01-02-2022 23:40:00 8.1 C 7.41 g/m*3 4.58 C 24.1 km/h
286 01-02-2022 23:45:00 8.1 C 7.41 g/m*3 5.05 C 19.3 km/h
287 01-02-2022 23:50:00 8.1 C 7.41 g/m*3 6.75 C 8.1 km/h
288 01-02-2022 23:55:00 8 C 7.44 g/m*3 6.64 C 8.1 km/h

Legende:
   Min
   Max


Maximal/Minimal-Werte vom 01.02.2022 - 01.02.2022

Sensor Min Max Avg
Temp
(Aussen-T/F)
3.1 °C
01-02-2022  08:15:00
9.7 °C
01-02-2022  21:05:00
5.42 °C
Abs-Feuchte
(Aussen-T/F)
5.2 g/m*3
01-02-2022  06:20:00
7.71 g/m*3
01-02-2022  20:10:00
6.1 g/m*3
Windchill
(Aussen-T/F)
-0.86 C
01-02-2022  08:50:00
8.1 C
01-02-2022  22:50:00
2.27 C

Die Daten stammen von einer Davis Vantage Pro 2 Wetter-Station und werden unter Linux mit der Software wview2wettercgi und aufbereitet. Alle Angaben erfolgen ohne Gewähr für ihre Vollständigkeit oder Richtigkeit.
Kontakt: Rainer Krienke krienke@uni-koblenz.de . Meine Webseiten an der Uni Koblenz oder privat.
Version: $Revision: 0.78 $